sensor_id;sensor_type;location;lat;lon;timestamp;temperature;humidity
14144;DHT22;7152;48.348;10.980;2023-03-31T00:01:11;6.90;99.90
14144;DHT22;7152;48.348;10.980;2023-03-31T00:03:37;6.90;99.90
14144;DHT22;7152;48.348;10.980;2023-03-31T00:06:09;6.80;99.90
14144;DHT22;7152;48.348;10.980;2023-03-31T00:08:36;6.80;99.90
14144;DHT22;7152;48.348;10.980;2023-03-31T00:11:05;6.80;99.90
14144;DHT22;7152;48.348;10.980;2023-03-31T00:13:34;6.90;99.90
14144;DHT22;7152;48.348;10.980;2023-03-31T00:16:06;6.90;99.90
14144;DHT22;7152;48.348;10.980;2023-03-31T00:18:32;6.90;99.90
14144;DHT22;7152;48.348;10.980;2023-03-31T00:21:10;6.90;99.90
14144;DHT22;7152;48.348;10.980;2023-03-31T00:24:00;6.90;99.90
14144;DHT22;7152;48.348;10.980;2023-03-31T00:26:26;6.90;99.90
14144;DHT22;7152;48.348;10.980;2023-03-31T00:28:54;7.00;99.90
14144;DHT22;7152;48.348;10.980;2023-03-31T00:31:21;7.00;99.90
14144;DHT22;7152;48.348;10.980;2023-03-31T00:33:47;7.00;99.90
14144;DHT22;7152;48.348;10.980;2023-03-31T00:36:13;7.00;99.90
14144;DHT22;7152;48.348;10.980;2023-03-31T00:38:48;7.10;99.90
14144;DHT22;7152;48.348;10.980;2023-03-31T00:41:15;7.10;99.90
14144;DHT22;7152;48.348;10.980;2023-03-31T00:49:14;7.10;99.90
14144;DHT22;7152;48.348;10.980;2023-03-31T00:51:41;7.10;99.90
14144;DHT22;7152;48.348;10.980;2023-03-31T00:54:08;7.10;99.90
14144;DHT22;7152;48.348;10.980;2023-03-31T00:56:37;7.10;99.90
14144;DHT22;7152;48.348;10.980;2023-03-31T00:59:06;7.10;99.90
14144;DHT22;7152;48.348;10.980;2023-03-31T01:01:33;7.00;99.90
14144;DHT22;7152;48.348;10.980;2023-03-31T01:04:01;7.00;99.90
14144;DHT22;7152;48.348;10.980;2023-03-31T01:06:27;7.00;99.90
14144;DHT22;7152;48.348;10.980;2023-03-31T01:08:55;7.00;99.90
14144;DHT22;7152;48.348;10.980;2023-03-31T01:11:23;7.00;99.90
14144;DHT22;7152;48.348;10.980;2023-03-31T01:13:52;7.00;99.90
14144;DHT22;7152;48.348;10.980;2023-03-31T01:16:21;7.00;99.90
14144;DHT22;7152;48.348;10.980;2023-03-31T01:18:47;7.00;99.90
14144;DHT22;7152;48.348;10.980;2023-03-31T01:47:15;7.10;99.90
14144;DHT22;7152;48.348;10.980;2023-03-31T01:49:56;7.00;99.90
14144;DHT22;7152;48.348;10.980;2023-03-31T01:52:39;6.90;99.90
14144;DHT22;7152;48.348;10.980;2023-03-31T01:55:21;6.90;99.90
14144;DHT22;7152;48.348;10.980;2023-03-31T01:57:59;6.90;99.90
14144;DHT22;7152;48.348;10.980;2023-03-31T02:00:39;6.80;99.90
14144;DHT22;7152;48.348;10.980;2023-03-31T02:03:17;6.80;99.90
14144;DHT22;7152;48.348;10.980;2023-03-31T02:05:53;6.90;99.90
14144;DHT22;7152;48.348;10.980;2023-03-31T02:08:22;6.90;99.90
14144;DHT22;7152;48.348;10.980;2023-03-31T02:10:50;6.90;99.90
14144;DHT22;7152;48.348;10.980;2023-03-31T02:13:18;7.00;99.90
14144;DHT22;7152;48.348;10.980;2023-03-31T02:15:47;7.00;99.90
14144;DHT22;7152;48.348;10.980;2023-03-31T02:18:18;7.10;99.90
14144;DHT22;7152;48.348;10.980;2023-03-31T02:20:48;7.20;99.90
14144;DHT22;7152;48.348;10.980;2023-03-31T02:23:16;7.20;99.90
14144;DHT22;7152;48.348;10.980;2023-03-31T02:25:48;7.30;99.90
14144;DHT22;7152;48.348;10.980;2023-03-31T02:28:20;7.30;99.90
14144;DHT22;7152;48.348;10.980;2023-03-31T02:31:16;7.30;99.90
14144;DHT22;7152;48.348;10.980;2023-03-31T02:33:45;7.40;99.90
14144;DHT22;7152;48.348;10.980;2023-03-31T02:36:11;7.50;99.90
14144;DHT22;7152;48.348;10.980;2023-03-31T02:38:45;7.50;99.90
14144;DHT22;7152;48.348;10.980;2023-03-31T02:41:12;7.60;99.90
14144;DHT22;7152;48.348;10.980;2023-03-31T02:43:38;7.60;99.90
14144;DHT22;7152;48.348;10.980;2023-03-31T02:46:03;7.70;99.90
14144;DHT22;7152;48.348;10.980;2023-03-31T02:48:44;7.80;99.90
14144;DHT22;7152;48.348;10.980;2023-03-31T02:51:32;7.80;99.90
14144;DHT22;7152;48.348;10.980;2023-03-31T02:57:16;7.90;99.90
14144;DHT22;7152;48.348;10.980;2023-03-31T03:14:34;8.00;99.90
14144;DHT22;7152;48.348;10.980;2023-03-31T03:17:11;8.00;99.90
14144;DHT22;7152;48.348;10.980;2023-03-31T03:19:40;8.00;99.90
14144;DHT22;7152;48.348;10.980;2023-03-31T03:22:06;8.00;99.90
14144;DHT22;7152;48.348;10.980;2023-03-31T03:24:32;8.00;99.90
14144;DHT22;7152;48.348;10.980;2023-03-31T03:26:59;8.00;99.90
14144;DHT22;7152;48.348;10.980;2023-03-31T03:29:25;8.10;99.90
14144;DHT22;7152;48.348;10.980;2023-03-31T03:31:51;8.10;99.90
14144;DHT22;7152;48.348;10.980;2023-03-31T03:34:18;8.10;99.90
14144;DHT22;7152;48.348;10.980;2023-03-31T03:36:45;8.10;99.90
14144;DHT22;7152;48.348;10.980;2023-03-31T03:39:11;8.10;99.90
14144;DHT22;7152;48.348;10.980;2023-03-31T03:41:37;8.10;99.90
14144;DHT22;7152;48.348;10.980;2023-03-31T03:44:03;8.10;99.90
14144;DHT22;7152;48.348;10.980;2023-03-31T03:46:29;8.10;99.90
14144;DHT22;7152;48.348;10.980;2023-03-31T03:48:54;8.10;99.90
14144;DHT22;7152;48.348;10.980;2023-03-31T03:51:21;8.10;99.90
14144;DHT22;7152;48.348;10.980;2023-03-31T03:53:46;8.20;99.90
14144;DHT22;7152;48.348;10.980;2023-03-31T03:56:12;8.20;99.90
14144;DHT22;7152;48.348;10.980;2023-03-31T03:58:38;8.20;99.90
14144;DHT22;7152;48.348;10.980;2023-03-31T04:01:03;8.20;99.90
14144;DHT22;7152;48.348;10.980;2023-03-31T04:03:29;8.20;99.90
14144;DHT22;7152;48.348;10.980;2023-03-31T04:05:55;8.20;99.90
14144;DHT22;7152;48.348;10.980;2023-03-31T04:08:21;8.20;99.90
14144;DHT22;7152;48.348;10.980;2023-03-31T04:10:47;8.20;99.90
14144;DHT22;7152;48.348;10.980;2023-03-31T04:13:17;8.20;99.90
14144;DHT22;7152;48.348;10.980;2023-03-31T04:15:44;8.20;99.90
14144;DHT22;7152;48.348;10.980;2023-03-31T04:18:10;8.30;99.90
14144;DHT22;7152;48.348;10.980;2023-03-31T04:20:46;8.30;99.90
14144;DHT22;7152;48.348;10.980;2023-03-31T04:23:22;8.30;99.90
14144;DHT22;7152;48.348;10.980;2023-03-31T04:25:49;8.30;99.90
14144;DHT22;7152;48.348;10.980;2023-03-31T04:28:15;8.30;99.90
14144;DHT22;7152;48.348;10.980;2023-03-31T04:30:40;8.30;99.90
14144;DHT22;7152;48.348;10.980;2023-03-31T04:33:06;8.30;99.90
14144;DHT22;7152;48.348;10.980;2023-03-31T04:35:32;8.40;99.90
14144;DHT22;7152;48.348;10.980;2023-03-31T04:38:19;8.40;99.90
14144;DHT22;7152;48.348;10.980;2023-03-31T04:40:50;8.40;99.90
14144;DHT22;7152;48.348;10.980;2023-03-31T04:43:17;8.40;99.90
14144;DHT22;7152;48.348;10.980;2023-03-31T04:45:43;8.40;99.90
14144;DHT22;7152;48.348;10.980;2023-03-31T04:48:09;8.40;99.90
14144;DHT22;7152;48.348;10.980;2023-03-31T04:50:35;8.50;99.90
14144;DHT22;7152;48.348;10.980;2023-03-31T04:53:02;8.50;99.90
14144;DHT22;7152;48.348;10.980;2023-03-31T04:55:28;8.50;99.90
14144;DHT22;7152;48.348;10.980;2023-03-31T04:57:54;8.50;99.90
14144;DHT22;7152;48.348;10.980;2023-03-31T05:00:20;8.50;99.90
14144;DHT22;7152;48.348;10.980;2023-03-31T05:02:46;8.50;99.90
14144;DHT22;7152;48.348;10.980;2023-03-31T05:05:12;8.50;99.90
14144;DHT22;7152;48.348;10.980;2023-03-31T05:07:38;8.50;99.90
14144;DHT22;7152;48.348;10.980;2023-03-31T05:10:04;8.60;99.90
14144;DHT22;7152;48.348;10.980;2023-03-31T05:12:34;8.60;99.90
14144;DHT22;7152;48.348;10.980;2023-03-31T05:15:00;8.60;99.90
14144;DHT22;7152;48.348;10.980;2023-03-31T05:17:26;8.60;99.90
14144;DHT22;7152;48.348;10.980;2023-03-31T05:19:51;8.60;99.90
14144;DHT22;7152;48.348;10.980;2023-03-31T05:22:17;8.60;99.90
14144;DHT22;7152;48.348;10.980;2023-03-31T05:24:45;8.60;99.90
14144;DHT22;7152;48.348;10.980;2023-03-31T05:27:11;8.60;99.90
14144;DHT22;7152;48.348;10.980;2023-03-31T05:29:37;8.60;99.90
14144;DHT22;7152;48.348;10.980;2023-03-31T05:32:02;8.60;99.90
14144;DHT22;7152;48.348;10.980;2023-03-31T05:34:28;8.70;99.90
14144;DHT22;7152;48.348;10.980;2023-03-31T05:36:54;8.70;99.90
14144;DHT22;7152;48.348;10.980;2023-03-31T05:39:19;8.70;99.90
14144;DHT22;7152;48.348;10.980;2023-03-31T05:41:46;8.70;99.90
14144;DHT22;7152;48.348;10.980;2023-03-31T05:44:11;8.70;99.90
14144;DHT22;7152;48.348;10.980;2023-03-31T05:46:37;8.80;99.90
14144;DHT22;7152;48.348;10.980;2023-03-31T05:49:03;8.80;99.90
14144;DHT22;7152;48.348;10.980;2023-03-31T05:51:28;8.90;99.90
14144;DHT22;7152;48.348;10.980;2023-03-31T05:53:54;8.90;99.90
14144;DHT22;7152;48.348;10.980;2023-03-31T05:56:20;9.00;99.90
14144;DHT22;7152;48.348;10.980;2023-03-31T05:58:46;9.00;99.90
14144;DHT22;7152;48.348;10.980;2023-03-31T06:01:14;9.10;99.90
14144;DHT22;7152;48.348;10.980;2023-03-31T06:03:47;9.10;99.90
14144;DHT22;7152;48.348;10.980;2023-03-31T06:06:13;9.10;99.90
14144;DHT22;7152;48.348;10.980;2023-03-31T06:08:41;9.20;99.90
14144;DHT22;7152;48.348;10.980;2023-03-31T06:11:09;9.20;99.90
14144;DHT22;7152;48.348;10.980;2023-03-31T06:13:35;9.20;99.90
14144;DHT22;7152;48.348;10.980;2023-03-31T06:16:01;9.10;99.90
14144;DHT22;7152;48.348;10.980;2023-03-31T06:18:29;9.20;99.90
14144;DHT22;7152;48.348;10.980;2023-03-31T06:20:55;9.20;99.90
14144;DHT22;7152;48.348;10.980;2023-03-31T06:23:22;9.20;99.90
14144;DHT22;7152;48.348;10.980;2023-03-31T06:25:48;9.20;99.90
14144;DHT22;7152;48.348;10.980;2023-03-31T06:28:14;9.20;99.90
14144;DHT22;7152;48.348;10.980;2023-03-31T06:30:39;9.20;99.90
14144;DHT22;7152;48.348;10.980;2023-03-31T06:33:05;9.10;99.90
14144;DHT22;7152;48.348;10.980;2023-03-31T06:35:31;9.10;99.90
14144;DHT22;7152;48.348;10.980;2023-03-31T06:37:57;9.10;99.90
14144;DHT22;7152;48.348;10.980;2023-03-31T06:40:23;9.10;99.90
14144;DHT22;7152;48.348;10.980;2023-03-31T06:42:49;9.10;99.90
14144;DHT22;7152;48.348;10.980;2023-03-31T06:45:14;9.20;99.90
14144;DHT22;7152;48.348;10.980;2023-03-31T06:47:40;9.10;99.90
14144;DHT22;7152;48.348;10.980;2023-03-31T06:50:07;9.10;99.90
14144;DHT22;7152;48.348;10.980;2023-03-31T06:52:34;9.10;99.90
14144;DHT22;7152;48.348;10.980;2023-03-31T06:55:00;9.10;99.90
14144;DHT22;7152;48.348;10.980;2023-03-31T06:57:27;9.10;99.90
14144;DHT22;7152;48.348;10.980;2023-03-31T06:59:53;9.10;99.90
14144;DHT22;7152;48.348;10.980;2023-03-31T07:02:19;9.00;99.90
14144;DHT22;7152;48.348;10.980;2023-03-31T07:04:45;9.10;99.90
14144;DHT22;7152;48.348;10.980;2023-03-31T07:07:11;9.10;99.90
14144;DHT22;7152;48.348;10.980;2023-03-31T07:09:36;9.00;99.90
14144;DHT22;7152;48.348;10.980;2023-03-31T07:12:03;9.00;99.90
14144;DHT22;7152;48.348;10.980;2023-03-31T07:14:31;9.10;99.90
14144;DHT22;7152;48.348;10.980;2023-03-31T07:16:57;9.10;99.90
14144;DHT22;7152;48.348;10.980;2023-03-31T07:19:24;9.10;99.90
14144;DHT22;7152;48.348;10.980;2023-03-31T07:21:50;9.10;99.90
14144;DHT22;7152;48.348;10.980;2023-03-31T07:24:16;9.10;99.90
14144;DHT22;7152;48.348;10.980;2023-03-31T07:26:42;9.10;99.90
14144;DHT22;7152;48.348;10.980;2023-03-31T07:29:08;9.20;99.90
14144;DHT22;7152;48.348;10.980;2023-03-31T07:31:33;9.30;99.90
14144;DHT22;7152;48.348;10.980;2023-03-31T07:34:01;9.40;99.90
14144;DHT22;7152;48.348;10.980;2023-03-31T07:36:27;9.60;99.90
14144;DHT22;7152;48.348;10.980;2023-03-31T07:38:53;9.70;99.90
14144;DHT22;7152;48.348;10.980;2023-03-31T07:41:20;9.90;99.90
14144;DHT22;7152;48.348;10.980;2023-03-31T07:43:47;10.00;99.90
14144;DHT22;7152;48.348;10.980;2023-03-31T07:46:24;10.10;99.90
14144;DHT22;7152;48.348;10.980;2023-03-31T07:48:51;10.20;99.90
14144;DHT22;7152;48.348;10.980;2023-03-31T07:51:19;10.30;99.90
14144;DHT22;7152;48.348;10.980;2023-03-31T07:53:46;10.30;99.90
14144;DHT22;7152;48.348;10.980;2023-03-31T07:56:13;10.40;99.90
14144;DHT22;7152;48.348;10.980;2023-03-31T07:58:42;10.40;99.90
14144;DHT22;7152;48.348;10.980;2023-03-31T08:01:08;10.40;99.90
14144;DHT22;7152;48.348;10.980;2023-03-31T08:03:33;10.50;99.90
14144;DHT22;7152;48.348;10.980;2023-03-31T08:05:59;10.40;99.90
14144;DHT22;7152;48.348;10.980;2023-03-31T08:08:25;10.40;99.90
14144;DHT22;7152;48.348;10.980;2023-03-31T08:10:51;10.40;99.90
14144;DHT22;7152;48.348;10.980;2023-03-31T08:13:17;10.60;99.90
14144;DHT22;7152;48.348;10.980;2023-03-31T08:15:43;10.60;99.90
14144;DHT22;7152;48.348;10.980;2023-03-31T08:18:09;10.50;99.90
14144;DHT22;7152;48.348;10.980;2023-03-31T08:20:34;10.40;99.90
14144;DHT22;7152;48.348;10.980;2023-03-31T08:23:00;10.30;99.90
14144;DHT22;7152;48.348;10.980;2023-03-31T08:25:26;10.30;99.90
14144;DHT22;7152;48.348;10.980;2023-03-31T08:27:52;10.20;99.90
14144;DHT22;7152;48.348;10.980;2023-03-31T08:30:18;10.20;99.90
14144;DHT22;7152;48.348;10.980;2023-03-31T08:32:45;10.10;99.90
14144;DHT22;7152;48.348;10.980;2023-03-31T08:35:10;10.10;99.90
14144;DHT22;7152;48.348;10.980;2023-03-31T08:37:37;10.00;99.90
14144;DHT22;7152;48.348;10.980;2023-03-31T08:40:04;10.00;99.90
14144;DHT22;7152;48.348;10.980;2023-03-31T08:42:38;10.10;99.90
14144;DHT22;7152;48.348;10.980;2023-03-31T08:45:22;10.30;99.90
14144;DHT22;7152;48.348;10.980;2023-03-31T08:47:56;10.50;99.90
14144;DHT22;7152;48.348;10.980;2023-03-31T08:50:28;10.60;99.90
14144;DHT22;7152;48.348;10.980;2023-03-31T08:53:24;10.70;99.90
14144;DHT22;7152;48.348;10.980;2023-03-31T08:55:52;10.70;99.90
14144;DHT22;7152;48.348;10.980;2023-03-31T08:58:41;10.70;99.90
14144;DHT22;7152;48.348;10.980;2023-03-31T09:04:40;10.70;99.90
14144;DHT22;7152;48.348;10.980;2023-03-31T09:17:50;11.30;99.90
14144;DHT22;7152;48.348;10.980;2023-03-31T09:20:24;11.40;99.90
14144;DHT22;7152;48.348;10.980;2023-03-31T09:23:00;11.50;99.90
14144;DHT22;7152;48.348;10.980;2023-03-31T09:25:30;11.50;99.90
14144;DHT22;7152;48.348;10.980;2023-03-31T09:27:58;11.60;99.90
14144;DHT22;7152;48.348;10.980;2023-03-31T09:30:29;11.60;99.90
14144;DHT22;7152;48.348;10.980;2023-03-31T09:33:17;11.60;99.90
14144;DHT22;7152;48.348;10.980;2023-03-31T09:35:43;11.70;99.90
14144;DHT22;7152;48.348;10.980;2023-03-31T09:38:11;11.90;99.90
14144;DHT22;7152;48.348;10.980;2023-03-31T09:40:37;12.00;99.90
14144;DHT22;7152;48.348;10.980;2023-03-31T09:43:06;12.20;99.90
14144;DHT22;7152;48.348;10.980;2023-03-31T09:45:33;12.30;99.90
14144;DHT22;7152;48.348;10.980;2023-03-31T09:48:15;12.40;99.90
14144;DHT22;7152;48.348;10.980;2023-03-31T09:50:49;12.60;99.90
14144;DHT22;7152;48.348;10.980;2023-03-31T09:54:08;12.70;99.90
14144;DHT22;7152;48.348;10.980;2023-03-31T09:56:52;12.90;99.90
14144;DHT22;7152;48.348;10.980;2023-03-31T09:59:34;13.00;99.90
14144;DHT22;7152;48.348;10.980;2023-03-31T10:02:15;13.20;99.90
14144;DHT22;7152;48.348;10.980;2023-03-31T10:04:45;13.40;99.90
14144;DHT22;7152;48.348;10.980;2023-03-31T10:07:11;13.40;99.90
14144;DHT22;7152;48.348;10.980;2023-03-31T10:09:38;13.50;99.90
14144;DHT22;7152;48.348;10.980;2023-03-31T10:12:07;13.50;99.90
14144;DHT22;7152;48.348;10.980;2023-03-31T10:14:44;13.40;99.90
14144;DHT22;7152;48.348;10.980;2023-03-31T10:17:19;13.60;99.90
14144;DHT22;7152;48.348;10.980;2023-03-31T10:22:16;13.80;99.90
14144;DHT22;7152;48.348;10.980;2023-03-31T10:24:51;13.90;99.90
14144;DHT22;7152;48.348;10.980;2023-03-31T10:27:23;14.00;99.90
14144;DHT22;7152;48.348;10.980;2023-03-31T10:29:57;13.90;99.90
14144;DHT22;7152;48.348;10.980;2023-03-31T10:32:29;13.80;99.90
14144;DHT22;7152;48.348;10.980;2023-03-31T10:34:57;14.00;99.90
14144;DHT22;7152;48.348;10.980;2023-03-31T10:37:27;14.00;99.90
14144;DHT22;7152;48.348;10.980;2023-03-31T10:40:03;14.10;99.90
14144;DHT22;7152;48.348;10.980;2023-03-31T10:42:31;14.20;99.90
14144;DHT22;7152;48.348;10.980;2023-03-31T10:45:27;14.40;99.90
14144;DHT22;7152;48.348;10.980;2023-03-31T10:47:59;14.50;99.90
14144;DHT22;7152;48.348;10.980;2023-03-31T10:50:33;14.60;99.90
14144;DHT22;7152;48.348;10.980;2023-03-31T10:53:10;14.60;99.90
14144;DHT22;7152;48.348;10.980;2023-03-31T10:56:03;14.60;99.90
14144;DHT22;7152;48.348;10.980;2023-03-31T10:58:43;14.50;99.90
14144;DHT22;7152;48.348;10.980;2023-03-31T11:01:51;14.40;99.90
14144;DHT22;7152;48.348;10.980;2023-03-31T11:04:36;14.40;99.90
14144;DHT22;7152;48.348;10.980;2023-03-31T11:07:27;14.30;99.90
14144;DHT22;7152;48.348;10.980;2023-03-31T11:16:02;13.80;99.90
14144;DHT22;7152;48.348;10.980;2023-03-31T11:18:44;13.90;99.90
14144;DHT22;7152;48.348;10.980;2023-03-31T11:21:30;14.30;99.90
14144;DHT22;7152;48.348;10.980;2023-03-31T11:35:23;15.50;99.90
14144;DHT22;7152;48.348;10.980;2023-03-31T11:46:35;16.10;99.90
14144;DHT22;7152;48.348;10.980;2023-03-31T11:51:48;17.20;99.90
14144;DHT22;7152;48.348;10.980;2023-03-31T11:57:40;16.70;99.90
14144;DHT22;7152;48.348;10.980;2023-03-31T12:05:26;16.80;99.90
14144;DHT22;7152;48.348;10.980;2023-03-31T12:10:35;16.60;99.90
14144;DHT22;7152;48.348;10.980;2023-03-31T12:15:45;17.40;99.90
14144;DHT22;7152;48.348;10.980;2023-03-31T12:18:16;18.00;99.90
14144;DHT22;7152;48.348;10.980;2023-03-31T12:20:49;18.60;99.90
14144;DHT22;7152;48.348;10.980;2023-03-31T12:23:22;18.90;99.90
14144;DHT22;7152;48.348;10.980;2023-03-31T12:28:32;19.00;99.90
14144;DHT22;7152;48.348;10.980;2023-03-31T12:31:00;18.80;99.90
14144;DHT22;7152;48.348;10.980;2023-03-31T12:56:06;14.50;99.90
14144;DHT22;7152;48.348;10.980;2023-03-31T12:58:37;14.20;99.90
14144;DHT22;7152;48.348;10.980;2023-03-31T13:03:53;13.70;99.90
14144;DHT22;7152;48.348;10.980;2023-03-31T13:09:42;13.30;99.90
14144;DHT22;7152;48.348;10.980;2023-03-31T13:12:13;12.80;99.90
14144;DHT22;7152;48.348;10.980;2023-03-31T13:14:42;12.20;99.90
14144;DHT22;7152;48.348;10.980;2023-03-31T13:19:47;11.30;99.90
14144;DHT22;7152;48.348;10.980;2023-03-31T13:22:36;11.30;99.90
14144;DHT22;7152;48.348;10.980;2023-03-31T13:28:14;11.40;99.90
14144;DHT22;7152;48.348;10.980;2023-03-31T13:33:29;11.40;99.90
14144;DHT22;7152;48.348;10.980;2023-03-31T13:47:48;17.60;99.90
14144;DHT22;7152;48.348;10.980;2023-03-31T14:02:30;18.30;99.90
14144;DHT22;7152;48.348;10.980;2023-03-31T14:07:43;17.10;99.90
14144;DHT22;7152;48.348;10.980;2023-03-31T14:10:27;16.10;99.90
14144;DHT22;7152;48.348;10.980;2023-03-31T14:13:07;15.60;99.90
14144;DHT22;7152;48.348;10.980;2023-03-31T14:15:36;15.10;99.90
14144;DHT22;7152;48.348;10.980;2023-03-31T14:18:04;14.60;99.90
14144;DHT22;7152;48.348;10.980;2023-03-31T14:20:42;14.30;99.90
14144;DHT22;7152;48.348;10.980;2023-03-31T14:25:42;13.70;99.90
14144;DHT22;7152;48.348;10.980;2023-03-31T14:28:16;13.50;99.90
14144;DHT22;7152;48.348;10.980;2023-03-31T14:31:14;13.30;99.90
14144;DHT22;7152;48.348;10.980;2023-03-31T14:39:25;12.90;99.90
14144;DHT22;7152;48.348;10.980;2023-03-31T14:41:53;12.80;99.90
14144;DHT22;7152;48.348;10.980;2023-03-31T14:44:19;12.80;99.90
14144;DHT22;7152;48.348;10.980;2023-03-31T14:46:46;12.60;99.90
14144;DHT22;7152;48.348;10.980;2023-03-31T14:49:28;12.50;99.90
14144;DHT22;7152;48.348;10.980;2023-03-31T14:52:00;12.90;99.90
14144;DHT22;7152;48.348;10.980;2023-03-31T14:54:33;13.40;99.90
14144;DHT22;7152;48.348;10.980;2023-03-31T14:57:01;14.70;99.90
14144;DHT22;7152;48.348;10.980;2023-03-31T14:59:30;15.90;99.90
14144;DHT22;7152;48.348;10.980;2023-03-31T15:01:59;17.00;99.90
14144;DHT22;7152;48.348;10.980;2023-03-31T15:04:29;18.20;99.90
14144;DHT22;7152;48.348;10.980;2023-03-31T15:06:55;19.20;99.90
14144;DHT22;7152;48.348;10.980;2023-03-31T15:09:28;19.60;99.90
14144;DHT22;7152;48.348;10.980;2023-03-31T15:12:07;19.80;99.90
14144;DHT22;7152;48.348;10.980;2023-03-31T15:14:42;20.10;99.90
14144;DHT22;7152;48.348;10.980;2023-03-31T15:17:21;19.80;99.90
14144;DHT22;7152;48.348;10.980;2023-03-31T15:20:01;18.30;99.90
14144;DHT22;7152;48.348;10.980;2023-03-31T15:22:29;17.10;99.90
14144;DHT22;7152;48.348;10.980;2023-03-31T15:24:56;16.10;99.90
14144;DHT22;7152;48.348;10.980;2023-03-31T15:29:55;15.10;99.90
14144;DHT22;7152;48.348;10.980;2023-03-31T15:32:31;14.60;99.90
14144;DHT22;7152;48.348;10.980;2023-03-31T15:34:59;14.10;99.90
14144;DHT22;7152;48.348;10.980;2023-03-31T15:37:45;13.80;99.90
14144;DHT22;7152;48.348;10.980;2023-03-31T15:43:02;13.30;99.90
14144;DHT22;7152;48.348;10.980;2023-03-31T15:45:50;13.00;99.90
14144;DHT22;7152;48.348;10.980;2023-03-31T15:48:20;12.70;99.90
14144;DHT22;7152;48.348;10.980;2023-03-31T15:50:46;12.60;99.90
14144;DHT22;7152;48.348;10.980;2023-03-31T15:55:57;12.80;99.90
14144;DHT22;7152;48.348;10.980;2023-03-31T15:58:55;12.80;99.90
14144;DHT22;7152;48.348;10.980;2023-03-31T16:01:22;12.60;99.90
14144;DHT22;7152;48.348;10.980;2023-03-31T16:03:52;12.40;99.90
14144;DHT22;7152;48.348;10.980;2023-03-31T16:06:35;12.20;99.90
14144;DHT22;7152;48.348;10.980;2023-03-31T16:09:07;12.00;99.90
14144;DHT22;7152;48.348;10.980;2023-03-31T16:11:40;12.00;99.90
14144;DHT22;7152;48.348;10.980;2023-03-31T16:14:20;11.90;99.90
14144;DHT22;7152;48.348;10.980;2023-03-31T16:16:51;11.90;99.90
14144;DHT22;7152;48.348;10.980;2023-03-31T16:19:20;11.70;99.90
14144;DHT22;7152;48.348;10.980;2023-03-31T16:21:48;11.70;99.90
14144;DHT22;7152;48.348;10.980;2023-03-31T16:24:20;11.60;99.90
14144;DHT22;7152;48.348;10.980;2023-03-31T16:26:47;11.50;99.90
14144;DHT22;7152;48.348;10.980;2023-03-31T16:29:22;11.30;99.90
14144;DHT22;7152;48.348;10.980;2023-03-31T16:31:48;11.10;99.90
14144;DHT22;7152;48.348;10.980;2023-03-31T16:34:13;10.90;99.90
14144;DHT22;7152;48.348;10.980;2023-03-31T16:36:39;10.70;99.90
14144;DHT22;7152;48.348;10.980;2023-03-31T16:39:05;10.50;99.90
14144;DHT22;7152;48.348;10.980;2023-03-31T16:41:32;10.10;99.90
14144;DHT22;7152;48.348;10.980;2023-03-31T16:43:59;10.00;99.90
14144;DHT22;7152;48.348;10.980;2023-03-31T16:46:25;9.90;99.90
14144;DHT22;7152;48.348;10.980;2023-03-31T16:48:51;9.80;99.90
14144;DHT22;7152;48.348;10.980;2023-03-31T16:51:17;9.80;99.90
14144;DHT22;7152;48.348;10.980;2023-03-31T16:53:45;9.80;99.90
14144;DHT22;7152;48.348;10.980;2023-03-31T16:56:12;9.80;99.90
14144;DHT22;7152;48.348;10.980;2023-03-31T16:58:39;9.80;99.90
14144;DHT22;7152;48.348;10.980;2023-03-31T17:01:05;9.80;99.90
14144;DHT22;7152;48.348;10.980;2023-03-31T17:03:32;9.80;99.90
14144;DHT22;7152;48.348;10.980;2023-03-31T17:06:04;9.80;99.90
14144;DHT22;7152;48.348;10.980;2023-03-31T17:08:30;9.80;99.90
14144;DHT22;7152;48.348;10.980;2023-03-31T17:11:08;9.80;99.90
14144;DHT22;7152;48.348;10.980;2023-03-31T17:13:35;9.80;99.90
14144;DHT22;7152;48.348;10.980;2023-03-31T17:16:01;9.70;99.90
14144;DHT22;7152;48.348;10.980;2023-03-31T17:18:27;9.70;99.90
14144;DHT22;7152;48.348;10.980;2023-03-31T17:20:52;9.70;99.90
14144;DHT22;7152;48.348;10.980;2023-03-31T17:23:19;9.60;99.90
14144;DHT22;7152;48.348;10.980;2023-03-31T17:25:47;9.50;99.90
14144;DHT22;7152;48.348;10.980;2023-03-31T17:28:12;9.30;99.90
14144;DHT22;7152;48.348;10.980;2023-03-31T17:30:38;9.20;99.90
14144;DHT22;7152;48.348;10.980;2023-03-31T17:33:04;9.10;99.90
14144;DHT22;7152;48.348;10.980;2023-03-31T17:35:29;9.00;99.90
14144;DHT22;7152;48.348;10.980;2023-03-31T17:37:55;8.90;99.90
14144;DHT22;7152;48.348;10.980;2023-03-31T17:40:22;8.80;99.90
14144;DHT22;7152;48.348;10.980;2023-03-31T17:42:48;8.80;99.90
14144;DHT22;7152;48.348;10.980;2023-03-31T17:45:15;8.70;99.90
14144;DHT22;7152;48.348;10.980;2023-03-31T17:47:40;8.60;99.90
14144;DHT22;7152;48.348;10.980;2023-03-31T17:50:07;8.60;99.90
14144;DHT22;7152;48.348;10.980;2023-03-31T17:52:34;8.60;99.90
14144;DHT22;7152;48.348;10.980;2023-03-31T17:55:01;8.70;99.90
14144;DHT22;7152;48.348;10.980;2023-03-31T17:57:29;8.60;99.90
14144;DHT22;7152;48.348;10.980;2023-03-31T17:59:54;8.60;99.90
14144;DHT22;7152;48.348;10.980;2023-03-31T18:02:21;8.60;99.90
14144;DHT22;7152;48.348;10.980;2023-03-31T18:04:47;8.60;99.90
14144;DHT22;7152;48.348;10.980;2023-03-31T18:07:13;8.50;99.90
14144;DHT22;7152;48.348;10.980;2023-03-31T18:09:39;8.60;99.90
14144;DHT22;7152;48.348;10.980;2023-03-31T18:12:04;8.60;99.90
14144;DHT22;7152;48.348;10.980;2023-03-31T18:14:30;8.50;99.90
14144;DHT22;7152;48.348;10.980;2023-03-31T18:16:57;8.60;99.90
14144;DHT22;7152;48.348;10.980;2023-03-31T18:19:23;8.60;99.90
14144;DHT22;7152;48.348;10.980;2023-03-31T18:21:49;8.70;99.90
14144;DHT22;7152;48.348;10.980;2023-03-31T18:24:15;8.70;99.90
14144;DHT22;7152;48.348;10.980;2023-03-31T18:26:43;8.70;99.90
14144;DHT22;7152;48.348;10.980;2023-03-31T18:29:08;8.70;99.90
14144;DHT22;7152;48.348;10.980;2023-03-31T18:31:34;8.70;99.90
14144;DHT22;7152;48.348;10.980;2023-03-31T18:34:00;8.70;99.90
14144;DHT22;7152;48.348;10.980;2023-03-31T18:36:25;8.70;99.90
14144;DHT22;7152;48.348;10.980;2023-03-31T18:38:51;8.70;99.90
14144;DHT22;7152;48.348;10.980;2023-03-31T18:41:17;8.70;99.90
14144;DHT22;7152;48.348;10.980;2023-03-31T18:43:43;8.70;99.90
14144;DHT22;7152;48.348;10.980;2023-03-31T18:46:09;8.70;99.90
14144;DHT22;7152;48.348;10.980;2023-03-31T18:48:36;8.70;99.90
14144;DHT22;7152;48.348;10.980;2023-03-31T18:51:02;8.70;99.90
14144;DHT22;7152;48.348;10.980;2023-03-31T18:53:29;8.70;99.90
14144;DHT22;7152;48.348;10.980;2023-03-31T18:55:56;8.60;99.90
14144;DHT22;7152;48.348;10.980;2023-03-31T18:58:24;8.60;99.90
14144;DHT22;7152;48.348;10.980;2023-03-31T19:00:50;8.50;99.90
14144;DHT22;7152;48.348;10.980;2023-03-31T19:03:15;8.50;99.90
14144;DHT22;7152;48.348;10.980;2023-03-31T19:05:42;8.40;99.90
14144;DHT22;7152;48.348;10.980;2023-03-31T19:08:07;8.40;99.90